Terminal Aerodrome Forecast
Issued by NWS Cleveland, OH

Home | Current Version | Previous Version | Text Only | Print | Product List | Glossary On
Versions: 1 2 3 4 5 6 7 8 9 10 11 12 13 14 15 16
000
FTUS41 KCLE 311700
TAFCAK
TAF
KCAK 311737Z 3118/0118 22008KT P6SM VCSH SCT018 OVC028
     FM312000 23008KT 6SM -SHRA SCT015 OVC025
      TEMPO 3120/3122 4SM -SHRA BR SCT008 OVC015
     FM312200 02010KT 3SM -SHRA BR OVC008
     FM010400 02012G20KT 2SM -SHRA BR OVC008
     FM011200 36015G25KT 1 1/2SM -RASN BR OVC007
     FM011500 35015G25KT 2SM -RASN BR OVC006=

USA.gov is the U.S. government's official web portal to all federal, state and local government web resources and services.